Terminal Aerodrome Forecast
Issued by NWS

Home | Current Version | Previous Version | Text Only | Print | Product List | Glossary On
Versions: 1 2 3 4 5 6 7 8 9 10 11 12 13 14
000
FTUS44 KJAN 012300 RRA
TAFHKS
TAF
KHKS 012348Z 0200/0224 27015G30KT 5SM -SHRA SCT030 BKN040 OVC100
     FM020100 30012G20KT P6SM VCSH FEW020 BKN030 BKN100
     FM020400 31012G19KT P6SM SCT050
     FM021600 34012KT P6SM SKC=

USA.gov is the U.S. government's official web portal to all federal, state and local government web resources and services.